Temperatura si umiditatea in Oradea

<< Iulie 2018 >>
L M Mi J V S D
            1
2 3 4 5 6 7 8
9 10 11 12 13 14 15
16 17 18 19 20 21 22
23 24 25 26 27 28 29
30 31          

Temperatura si umiditatea in Oradea la data de 18.07.2018
Ora Temperatura Umiditatea Presiunea
00:00 17.8 °C (17.8) 93 % 1.006 bar
00:30 17.8 °C (17.8) 94 % 1.006 bar
01:00 17.8 °C (17.8) 93 % 1.006 bar
01:30 17.8 °C (17.8) 93 % 1.006 bar
02:00 17.8 °C (17.8) 94 % 1.006 bar
02:30 17.8 °C (17.8) 93 % 1.006 bar
03:00 17.2 °C (17.2) 93 % 1.006 bar
03:30 17.2 °C (17.2) 93 % 1.006 bar
04:00 17.2 °C (17.2) 93 % 1.006 bar
04:30 16.7 °C (16.7) 93 % 1.006 bar
 
Ora Temperatura Umiditatea Presiunea
05:00 17.2 °C (17.2) 93 % 1.005 bar
05:30 17.2 °C (17.2) 92 % 1.006 bar
06:00 17.8 °C (17.8) 93 % 1.006 bar
06:30 17.8 °C (17.8) 93 % 1.006 bar
07:00 17.8 °C (17.8) 93 % 1.006 bar
07:30 17.8 °C (17.8) 93 % 1.006 bar
08:00 18.9 °C (18.9) 92 % 1.006 bar
08:30 19.4 °C (19.4) 90 % 1.006 bar
09:00 20.6 °C (20.6) 88 % 1.006 bar
09:30 21.1 °C (21.1) 87 % 1.006 bar